Milwaukee, Wisconsin
Traffic Map
Current Weather Conditions
Milwaukee, Wisconsin
Overcast Light Snow
Overcast
25°
Feels Like: 14°
Wind Chill: 14° Ceiling: 1100
Heat Index: 25° Visibility: 0.75mi
Dew Point: 21° Wind: 13mph
Humidity: 85% Direction: 160° (SSE)
Pressure: 29.95in Gusts: 0mph
Raw Report DataKMKE 031157Z 16011KT 3/4SM R01L/5500VP6000FT -SN BKN011 OVC016 M04/M06 A2995 RMK AO2 P0001 T10391061
Traffic Incident Summary
Active as of:
Severity:
Category:
InformationThere was an issue retrieving the traffic information for this location. Please try a different location or try again shortly.
Advertisements
Track Severe Weather on mobile